createdAt,value
2023-03-06T00:00:53.497Z,15.02
2023-03-06T00:05:57.681Z,17.67
2023-03-06T00:10:59.976Z,7.57
2023-03-06T00:16:02.101Z,15.23
2023-03-06T00:21:08.064Z,6.43
2023-03-06T00:26:10.846Z,15.20
2023-03-06T00:31:12.961Z,14.57
2023-03-06T00:36:15.015Z,10.32
2023-03-06T00:41:17.019Z,17.60
2023-03-06T00:46:18.976Z,4.18
2023-03-06T00:51:21.986Z,22.50
2023-03-06T00:56:24.338Z,13.23
2023-03-06T01:01:26.273Z,15.75
2023-03-06T01:06:28.530Z,17.90
2023-03-06T01:11:30.972Z,23.13
2023-03-06T01:16:33.376Z,2.63
2023-03-06T01:21:35.335Z,22.65
2023-03-06T01:26:37.418Z,24.48
2023-03-06T01:31:39.659Z,29.15
2023-03-06T01:36:41.802Z,17.60
2023-03-06T01:41:43.845Z,30.60
2023-03-06T01:46:46.479Z,23.35
2023-03-06T01:51:50.922Z,24.25
2023-03-06T01:56:57.585Z,16.67
2023-03-06T02:07:21.208Z,17.67
2023-03-06T02:12:24.157Z,18.88
2023-03-06T02:17:27.088Z,20.20
2023-03-06T02:22:43.806Z,15.75
2023-03-06T02:27:45.963Z,28.45
2023-03-06T02:32:47.945Z,19.58
2023-03-06T02:37:50.269Z,16.80
2023-03-06T02:42:58.355Z,19.33
2023-03-06T02:48:00.357Z,18.13
2023-03-06T02:53:02.371Z,20.15
2023-03-06T02:58:05.259Z,23.55
2023-03-06T03:03:08.087Z,25.05
2023-03-06T03:08:10.260Z,24.23
2023-03-06T03:13:12.249Z,20.85
2023-03-06T03:18:14.194Z,19.42
2023-03-06T03:23:16.153Z,23.15
2023-03-06T03:28:19.220Z,5.35
2023-03-06T03:33:21.173Z,10.65
2023-03-06T03:38:23.190Z,16.75
2023-03-06T03:43:25.089Z,21.63
2023-03-06T03:48:27.018Z,24.42
2023-03-06T03:53:29.000Z,23.08
2023-03-06T03:58:31.095Z,16.08
2023-03-06T04:03:33.106Z,18.25
2023-03-06T04:08:35.869Z,18.52
2023-03-06T04:13:37.861Z,15.65
2023-03-06T04:18:40.016Z,13.98
2023-03-06T04:23:41.987Z,20.23
2023-03-06T04:28:44.029Z,20.83
2023-03-06T04:33:46.081Z,19.58
2023-03-06T04:38:48.065Z,27.95
2023-03-06T04:43:50.207Z,17.80
2023-03-06T04:48:52.194Z,17.27
2023-03-06T04:53:54.326Z,23.55
2023-03-06T04:58:56.382Z,6.38
2023-03-06T05:03:58.395Z,19.15
2023-03-06T05:09:00.373Z,24.50
2023-03-06T05:14:02.365Z,19.58
2023-03-06T05:19:04.428Z,24.48
2023-03-06T05:24:06.688Z,3.40
2023-03-06T05:29:08.685Z,15.25
2023-03-06T05:34:14.346Z,14.15
2023-03-06T05:39:16.547Z,22.73
2023-03-06T05:44:18.510Z,20.52
2023-03-06T05:49:20.518Z,44.38
2023-03-06T05:54:24.622Z,11.07
2023-03-06T05:59:28.805Z,6.45
2023-03-06T06:04:30.853Z,2.25
2023-03-06T06:09:33.056Z,2.55
2023-03-06T06:14:35.243Z,20.70
2023-03-06T06:19:37.259Z,28.10
2023-03-06T06:24:39.444Z,40.17
2023-03-06T06:29:41.507Z,44.33
2023-03-06T06:34:43.557Z,55.80
2023-03-06T06:39:45.573Z,62.92
2023-03-06T06:44:47.690Z,62.63
2023-03-06T06:49:54.466Z,23.85
2023-03-06T06:54:56.715Z,9.77
2023-03-06T06:59:58.898Z,33.15
2023-03-06T07:05:04.720Z,23.67
2023-03-06T07:10:12.559Z,26.70
2023-03-06T07:15:16.055Z,26.27
2023-03-06T07:25:21.026Z,28.98
2023-03-06T07:30:24.389Z,43.03
2023-03-06T07:35:26.720Z,43.30
2023-03-06T07:40:28.875Z,31.65
2023-03-06T07:45:30.945Z,28.27
2023-03-06T07:50:33.663Z,31.08
2023-03-06T07:55:35.635Z,15.95
2023-03-06T08:00:37.596Z,28.00
2023-03-06T08:05:40.002Z,18.17
2023-03-06T08:10:48.230Z,25.08
2023-03-06T08:15:50.239Z,40.05
2023-03-06T08:21:08.334Z,26.23
2023-03-06T08:26:16.421Z,20.92
2023-03-06T08:31:37.225Z,33.83
2023-03-06T08:36:39.298Z,29.33
2023-03-06T08:41:42.561Z,19.42
2023-03-06T08:51:46.448Z,28.83
2023-03-06T08:56:48.545Z,10.48
2023-03-06T09:01:50.545Z,48.10
2023-03-06T09:06:54.502Z,8.38
2023-03-06T09:11:57.534Z,17.75
2023-03-06T09:16:59.767Z,34.22
2023-03-06T09:22:01.879Z,30.77
2023-03-06T09:27:04.011Z,33.78
2023-03-06T09:32:06.518Z,31.13
2023-03-06T09:37:08.569Z,46.20
2023-03-06T09:42:17.744Z,28.70
2023-03-06T09:47:28.953Z,26.63
2023-03-06T09:52:41.368Z,17.52
2023-03-06T09:57:56.318Z,30.48
2023-03-06T10:03:16.288Z,21.00
2023-03-06T10:08:36.755Z,27.98
2023-03-06T10:13:46.291Z,16.23
2023-03-06T10:18:48.419Z,18.70
2023-03-06T10:24:10.742Z,10.63
2023-03-06T10:29:12.704Z,8.38
2023-03-06T10:34:24.717Z,15.55
2023-03-06T10:39:28.709Z,18.55
2023-03-06T10:44:30.939Z,14.63
2023-03-06T10:49:36.524Z,12.95
2023-03-06T10:54:41.912Z,11.80
2023-03-06T10:59:55.694Z,9.95
2023-03-06T11:05:00.219Z,13.82
2023-03-06T11:10:19.361Z,15.73
2023-03-06T11:15:24.637Z,15.32
2023-03-06T11:20:49.985Z,15.38
2023-03-06T11:25:57.291Z,8.65
2023-03-06T11:31:08.517Z,4.50
2023-03-06T11:36:16.605Z,17.08
2023-03-06T11:41:38.724Z,14.65
2023-03-06T11:46:49.987Z,13.38
2023-03-06T11:51:56.378Z,14.90
2023-03-06T11:57:02.645Z,5.45
2023-03-06T12:02:15.268Z,22.08
2023-03-06T12:07:28.214Z,19.35
2023-03-06T12:12:48.646Z,20.38
2023-03-06T12:18:01.662Z,7.88
2023-03-06T12:23:40.972Z,27.52
2023-03-06T12:29:01.052Z,28.55
2023-03-06T12:34:38.420Z,22.95
2023-03-06T12:40:22.391Z,32.88
2023-03-06T12:45:33.682Z,28.50
2023-03-06T12:50:37.502Z,20.17
2023-03-06T12:55:50.144Z,33.40
2023-03-06T13:01:04.751Z,28.70
2023-03-06T13:06:21.748Z,17.63
2023-03-06T13:11:34.860Z,17.77
2023-03-06T13:16:36.986Z,25.95
2023-03-06T13:21:41.888Z,23.73
2023-03-06T13:26:43.860Z,18.05
2023-03-06T13:31:45.997Z,19.83
2023-03-06T13:36:48.204Z,15.38
2023-03-06T13:41:54.374Z,27.42
2023-03-06T13:47:18.037Z,10.48
2023-03-06T13:52:34.134Z,18.48
2023-03-06T13:57:51.316Z,30.27
2023-03-06T14:02:58.293Z,27.30
2023-03-06T14:08:23.356Z,31.55
2023-03-06T14:13:41.859Z,18.45
2023-03-06T14:18:51.678Z,33.25
2023-03-06T14:24:20.620Z,34.22
2023-03-06T14:29:25.561Z,29.73
2023-03-06T14:34:33.314Z,32.72
2023-03-06T14:39:41.856Z,34.67
2023-03-06T14:44:44.138Z,36.97
2023-03-06T14:49:46.114Z,34.35
2023-03-06T14:54:49.166Z,17.95
2023-03-06T14:59:56.763Z,30.30
2023-03-06T15:05:11.918Z,33.75
2023-03-06T15:10:26.407Z,25.45
2023-03-06T15:15:31.364Z,15.73
2023-03-06T15:20:39.003Z,33.42
2023-03-06T15:25:41.113Z,28.52
2023-03-06T15:30:43.289Z,36.15
2023-03-06T15:36:03.173Z,35.25
2023-03-06T15:41:19.971Z,32.72
2023-03-06T15:46:22.094Z,38.92
2023-03-06T15:51:24.628Z,41.63
2023-03-06T15:56:33.803Z,38.70
2023-03-06T16:01:37.412Z,43.42
2023-03-06T16:06:39.844Z,63.47
2023-03-06T16:11:45.414Z,88.75
2023-03-06T16:16:49.683Z,97.63
2023-03-06T16:21:52.172Z,105.05
2023-03-06T16:26:55.316Z,68.28
2023-03-06T16:31:59.634Z,54.60
2023-03-06T16:37:02.507Z,77.85
2023-03-06T16:42:05.027Z,58.75
2023-03-06T16:47:11.928Z,45.70
2023-03-06T16:52:14.907Z,58.08
2023-03-06T17:02:21.652Z,65.45
2023-03-06T17:07:24.548Z,83.90
2023-03-06T17:12:26.912Z,90.57
2023-03-06T17:17:29.372Z,82.68
2023-03-06T17:22:34.652Z,94.07
2023-03-06T17:27:38.520Z,95.85
2023-03-06T17:32:41.452Z,86.35
2023-03-06T17:37:43.862Z,101.15
2023-03-06T17:42:48.012Z,118.00
2023-03-06T17:47:54.711Z,93.55
2023-03-06T17:52:57.483Z,60.72
2023-03-06T17:57:59.902Z,80.20
2023-03-06T18:03:03.011Z,51.58
2023-03-06T18:08:09.139Z,56.08
2023-03-06T18:13:12.265Z,57.30
2023-03-06T18:18:16.077Z,53.47
2023-03-06T18:23:19.996Z,48.90
2023-03-06T18:28:23.146Z,64.00
2023-03-06T18:33:26.290Z,47.92
2023-03-06T18:38:29.354Z,122.68
2023-03-06T18:48:35.277Z,49.42
2023-03-06T18:53:42.210Z,66.00
2023-03-06T18:58:46.680Z,68.15
2023-03-06T19:03:50.206Z,64.47
2023-03-06T19:08:57.168Z,61.75
2023-03-06T19:14:01.063Z,47.97
2023-03-06T19:19:04.273Z,59.78
2023-03-06T19:29:11.674Z,96.38
2023-03-06T19:34:16.311Z,80.90
2023-03-06T19:39:21.817Z,61.53
2023-03-06T19:44:25.179Z,66.45
2023-03-06T19:49:29.681Z,56.40
2023-03-06T19:54:32.716Z,51.80
2023-03-06T19:59:35.770Z,54.80
2023-03-06T20:04:39.210Z,52.83
2023-03-06T20:09:42.351Z,59.85
2023-03-06T20:14:47.034Z,51.00
2023-03-06T20:19:50.084Z,63.03
2023-03-06T20:24:53.492Z,57.17
2023-03-06T20:29:56.734Z,51.22
2023-03-06T20:35:00.002Z,44.25
2023-03-06T20:45:09.926Z,50.70
2023-03-06T20:50:16.428Z,47.00
2023-03-06T20:55:19.061Z,59.38
2023-03-06T21:00:22.252Z,72.57
2023-03-06T21:05:25.390Z,144.63
2023-03-06T21:10:28.209Z,163.13
2023-03-06T21:15:31.602Z,217.77
2023-03-06T21:20:34.715Z,174.13
2023-03-06T21:25:37.035Z,134.27
2023-03-06T21:30:39.611Z,96.28
2023-03-06T21:35:43.182Z,75.68
2023-03-06T21:40:45.779Z,63.50
2023-03-06T21:45:49.377Z,50.90
2023-03-06T21:50:51.466Z,44.33
2023-03-06T21:55:53.451Z,46.13
2023-03-06T22:00:55.614Z,54.83
2023-03-06T22:06:08.162Z,56.75
2023-03-06T22:11:13.336Z,56.35
2023-03-06T22:16:16.041Z,56.28
2023-03-06T22:21:21.106Z,54.83
2023-03-06T22:26:23.475Z,50.38
2023-03-06T22:31:28.803Z,52.83
2023-03-06T22:36:31.828Z,48.28
2023-03-06T22:41:33.847Z,48.00
2023-03-06T22:46:35.930Z,44.80
2023-03-06T22:51:38.342Z,39.53
2023-03-06T22:56:40.395Z,45.08
2023-03-06T23:01:43.543Z,40.28
2023-03-06T23:06:47.196Z,40.85
2023-03-06T23:16:52.054Z,29.38
2023-03-06T23:21:54.053Z,28.88
2023-03-06T23:26:56.087Z,34.33
2023-03-06T23:31:58.047Z,34.13
2023-03-06T23:37:00.131Z,35.75
2023-03-06T23:42:02.128Z,24.52
2023-03-06T23:47:04.167Z,11.65
2023-03-06T23:52:06.205Z,31.90
2023-03-06T23:57:08.165Z,38.78
